sensor_id;sensor_type;location;lat;lon;timestamp;pressure;altitude;pressure_sealevel;temperature;humidity
62038;BME280;47991;42.974;12.082;2024-03-23T00:55:23;97847.89;;;9.77;83.98
62038;BME280;47991;42.974;12.082;2024-03-23T00:57:50;97844.07;;;9.74;84.81
62038;BME280;47991;42.974;12.082;2024-03-23T01:00:18;97844.52;;;9.70;84.26
62038;BME280;47991;42.974;12.082;2024-03-23T01:02:45;97835.50;;;9.64;84.16
62038;BME280;47991;42.974;12.082;2024-03-23T01:05:12;97836.05;;;9.63;84.51
62038;BME280;47991;42.974;12.082;2024-03-23T01:07:39;97832.88;;;9.63;84.32
62038;BME280;47991;42.974;12.082;2024-03-23T01:10:07;97829.22;;;9.61;84.16
62038;BME280;47991;42.974;12.082;2024-03-23T01:12:34;97830.85;;;9.59;84.12
62038;BME280;47991;42.974;12.082;2024-03-23T01:15:01;97823.30;;;9.57;84.43
62038;BME280;47991;42.974;12.082;2024-03-23T01:17:29;97823.05;;;9.52;84.69
62038;BME280;47991;42.974;12.082;2024-03-23T01:19:56;97820.14;;;9.49;85.34
62038;BME280;47991;42.974;12.082;2024-03-23T01:22:24;97821.80;;;9.46;86.45
62038;BME280;47991;42.974;12.082;2024-03-23T01:24:51;97822.34;;;9.45;87.39
62038;BME280;47991;42.974;12.082;2024-03-23T01:27:18;97823.41;;;9.44;86.37
62038;BME280;47991;42.974;12.082;2024-03-23T01:29:45;97823.61;;;9.44;85.94
62038;BME280;47991;42.974;12.082;2024-03-23T01:32:12;97820.70;;;9.40;86.63
62038;BME280;47991;42.974;12.082;2024-03-23T01:34:40;97819.46;;;9.40;86.03
62038;BME280;47991;42.974;12.082;2024-03-23T01:37:07;97820.31;;;9.41;86.09
62038;BME280;47991;42.974;12.082;2024-03-23T01:39:34;97817.33;;;9.41;86.80
62038;BME280;47991;42.974;12.082;2024-03-23T01:42:01;97821.56;;;9.41;87.13
62038;BME280;47991;42.974;12.082;2024-03-23T01:44:30;97818.36;;;9.42;86.60
62038;BME280;47991;42.974;12.082;2024-03-23T01:46:57;97817.42;;;9.44;86.14
62038;BME280;47991;42.974;12.082;2024-03-23T01:49:24;97815.85;;;9.44;86.05
62038;BME280;47991;42.974;12.082;2024-03-23T01:51:51;97813.73;;;9.43;86.98
62038;BME280;47991;42.974;12.082;2024-03-23T01:54:19;97810.35;;;9.37;86.94
62038;BME280;47991;42.974;12.082;2024-03-23T01:56:47;97810.91;;;9.36;87.12
62038;BME280;47991;42.974;12.082;2024-03-23T01:59:14;97808.41;;;9.29;87.77
62038;BME280;47991;42.974;12.082;2024-03-23T02:01:41;97806.91;;;9.26;88.71
62038;BME280;47991;42.974;12.082;2024-03-23T02:04:08;97805.36;;;9.24;90.32
62038;BME280;47991;42.974;12.082;2024-03-23T02:06:36;97806.36;;;9.27;89.20
62038;BME280;47991;42.974;12.082;2024-03-23T02:09:03;97802.58;;;9.29;89.37
62038;BME280;47991;42.974;12.082;2024-03-23T02:11:30;97800.04;;;9.33;88.03
62038;BME280;47991;42.974;12.082;2024-03-23T02:13:57;97798.58;;;9.34;88.86
62038;BME280;47991;42.974;12.082;2024-03-23T02:16:25;97797.42;;;9.31;88.74
62038;BME280;47991;42.974;12.082;2024-03-23T02:18:52;97792.48;;;9.23;90.76
62038;BME280;47991;42.974;12.082;2024-03-23T02:21:19;97790.60;;;9.05;90.60
62038;BME280;47991;42.974;12.082;2024-03-23T02:23:46;97791.61;;;8.99;91.14
62038;BME280;47991;42.974;12.082;2024-03-23T02:26:14;97789.24;;;8.94;91.29
62038;BME280;47991;42.974;12.082;2024-03-23T02:28:42;97788.55;;;8.93;89.32
62038;BME280;47991;42.974;12.082;2024-03-23T02:31:09;97786.07;;;8.94;89.09
62038;BME280;47991;42.974;12.082;2024-03-23T02:33:36;97779.42;;;8.92;88.41
62038;BME280;47991;42.974;12.082;2024-03-23T02:36:05;97782.97;;;8.91;88.31
62038;BME280;47991;42.974;12.082;2024-03-23T02:38:32;97780.15;;;8.91;88.12
62038;BME280;47991;42.974;12.082;2024-03-23T02:41:03;97777.84;;;8.92;89.65
62038;BME280;47991;42.974;12.082;2024-03-23T02:43:31;97779.10;;;8.91;88.40
62038;BME280;47991;42.974;12.082;2024-03-23T02:45:58;97779.20;;;8.94;88.40
62038;BME280;47991;42.974;12.082;2024-03-23T02:48:26;97781.11;;;8.87;90.17
62038;BME280;47991;42.974;12.082;2024-03-23T02:50:53;97783.91;;;8.71;92.91
62038;BME280;47991;42.974;12.082;2024-03-23T02:53:21;97784.59;;;8.64;91.41
62038;BME280;47991;42.974;12.082;2024-03-23T02:55:48;97779.64;;;8.65;89.93
62038;BME280;47991;42.974;12.082;2024-03-23T02:58:15;97778.73;;;8.67;89.02
62038;BME280;47991;42.974;12.082;2024-03-23T03:00:42;97780.45;;;8.68;88.61
62038;BME280;47991;42.974;12.082;2024-03-23T03:03:09;97783.08;;;8.69;88.08
62038;BME280;47991;42.974;12.082;2024-03-23T03:05:36;97777.94;;;8.70;87.89
62038;BME280;47991;42.974;12.082;2024-03-23T03:08:03;97777.39;;;8.72;87.78
62038;BME280;47991;42.974;12.082;2024-03-23T03:10:30;97775.25;;;8.72;87.60
62038;BME280;47991;42.974;12.082;2024-03-23T03:13:02;97773.64;;;8.74;87.55
62038;BME280;47991;42.974;12.082;2024-03-23T03:15:29;97772.39;;;8.74;87.45
62038;BME280;47991;42.974;12.082;2024-03-23T03:17:56;97771.69;;;8.66;87.55
62038;BME280;47991;42.974;12.082;2024-03-23T03:20:23;97771.16;;;8.57;87.74
62038;BME280;47991;42.974;12.082;2024-03-23T03:22:51;97772.10;;;8.54;87.62
62038;BME280;47991;42.974;12.082;2024-03-23T03:25:20;97772.70;;;8.50;88.21
62038;BME280;47991;42.974;12.082;2024-03-23T03:27:47;97772.54;;;8.50;87.99
62038;BME280;47991;42.974;12.082;2024-03-23T03:30:14;97772.17;;;8.51;87.70
62038;BME280;47991;42.974;12.082;2024-03-23T03:32:42;97773.72;;;8.52;88.14
62038;BME280;47991;42.974;12.082;2024-03-23T03:35:10;97775.11;;;8.53;89.17
62038;BME280;47991;42.974;12.082;2024-03-23T03:37:37;97777.30;;;8.49;88.76
62038;BME280;47991;42.974;12.082;2024-03-23T03:40:04;97780.88;;;8.47;88.96
62038;BME280;47991;42.974;12.082;2024-03-23T03:42:31;97773.63;;;8.38;91.06
62038;BME280;47991;42.974;12.082;2024-03-23T03:44:58;97768.27;;;8.32;89.43
62038;BME280;47991;42.974;12.082;2024-03-23T03:47:25;97769.59;;;8.28;89.36
62038;BME280;47991;42.974;12.082;2024-03-23T03:49:52;97771.23;;;8.25;88.39
62038;BME280;47991;42.974;12.082;2024-03-23T03:52:19;97768.84;;;8.21;88.95
62038;BME280;47991;42.974;12.082;2024-03-23T03:54:46;97776.09;;;8.19;89.07
62038;BME280;47991;42.974;12.082;2024-03-23T03:57:13;97776.60;;;8.20;89.11
62038;BME280;47991;42.974;12.082;2024-03-23T03:59:40;97774.79;;;8.13;89.07
62038;BME280;47991;42.974;12.082;2024-03-23T04:02:07;97770.27;;;8.10;89.65
62038;BME280;47991;42.974;12.082;2024-03-23T04:04:34;97774.58;;;8.06;89.47
62038;BME280;47991;42.974;12.082;2024-03-23T04:07:01;97774.16;;;8.00;88.95
62038;BME280;47991;42.974;12.082;2024-03-23T04:09:29;97770.25;;;7.92;89.20
62038;BME280;47991;42.974;12.082;2024-03-23T04:11:57;97767.10;;;7.91;89.68
62038;BME280;47991;42.974;12.082;2024-03-23T04:14:24;97765.30;;;7.93;89.45
62038;BME280;47991;42.974;12.082;2024-03-23T04:16:51;97765.12;;;7.94;89.13
62038;BME280;47991;42.974;12.082;2024-03-23T04:19:17;97763.89;;;7.93;89.07
62038;BME280;47991;42.974;12.082;2024-03-23T04:21:44;97767.59;;;7.93;88.97
62038;BME280;47991;42.974;12.082;2024-03-23T04:24:11;97764.25;;;7.92;89.09
62038;BME280;47991;42.974;12.082;2024-03-23T04:26:42;97762.87;;;7.92;88.78
62038;BME280;47991;42.974;12.082;2024-03-23T04:29:09;97760.42;;;7.90;88.64
62038;BME280;47991;42.974;12.082;2024-03-23T04:31:36;97763.48;;;7.86;88.82
62038;BME280;47991;42.974;12.082;2024-03-23T04:34:04;97763.67;;;7.85;88.63
62038;BME280;47991;42.974;12.082;2024-03-23T04:36:31;97763.53;;;7.83;88.47
62038;BME280;47991;42.974;12.082;2024-03-23T04:38:59;97764.63;;;7.81;88.72
62038;BME280;47991;42.974;12.082;2024-03-23T04:41:26;97762.98;;;7.74;89.56
62038;BME280;47991;42.974;12.082;2024-03-23T04:43:53;97764.45;;;7.71;89.54
62038;BME280;47991;42.974;12.082;2024-03-23T04:46:21;97761.74;;;7.64;89.00
62038;BME280;47991;42.974;12.082;2024-03-23T04:48:48;97760.91;;;7.62;88.92
62038;BME280;47991;42.974;12.082;2024-03-23T04:51:23;97760.16;;;7.64;88.81
62038;BME280;47991;42.974;12.082;2024-03-23T04:53:50;97763.48;;;7.64;89.15
62038;BME280;47991;42.974;12.082;2024-03-23T04:56:17;97764.01;;;7.65;89.66
62038;BME280;47991;42.974;12.082;2024-03-23T04:58:45;97763.48;;;7.66;89.64
62038;BME280;47991;42.974;12.082;2024-03-23T05:01:12;97764.36;;;7.65;89.17
62038;BME280;47991;42.974;12.082;2024-03-23T05:03:39;97768.04;;;7.66;89.24
62038;BME280;47991;42.974;12.082;2024-03-23T05:06:06;97767.31;;;7.68;89.04
62038;BME280;47991;42.974;12.082;2024-03-23T05:08:33;97768.23;;;7.65;89.30
62038;BME280;47991;42.974;12.082;2024-03-23T05:11:00;97767.27;;;7.70;89.14
62038;BME280;47991;42.974;12.082;2024-03-23T05:13:27;97770.92;;;7.73;88.96
62038;BME280;47991;42.974;12.082;2024-03-23T05:15:55;97771.31;;;7.71;88.65
62038;BME280;47991;42.974;12.082;2024-03-23T05:18:23;97772.35;;;7.72;88.83
62038;BME280;47991;42.974;12.082;2024-03-23T05:20:57;97770.77;;;7.73;89.04
62038;BME280;47991;42.974;12.082;2024-03-23T05:23:25;97767.05;;;7.73;89.74
62038;BME280;47991;42.974;12.082;2024-03-23T05:25:52;97765.42;;;7.76;89.82
62038;BME280;47991;42.974;12.082;2024-03-23T05:28:21;97770.30;;;7.78;89.32
62038;BME280;47991;42.974;12.082;2024-03-23T05:30:51;97767.91;;;8.04;89.27
62038;BME280;47991;42.974;12.082;2024-03-23T05:33:19;97767.59;;;8.50;89.03
62038;BME280;47991;42.974;12.082;2024-03-23T05:35:49;97767.20;;;8.95;88.42
62038;BME280;47991;42.974;12.082;2024-03-23T05:38:22;97766.23;;;9.45;87.77
62038;BME280;47991;42.974;12.082;2024-03-23T05:40:57;97766.68;;;9.91;86.65
62038;BME280;47991;42.974;12.082;2024-03-23T05:43:24;97763.69;;;10.45;85.57
62038;BME280;47991;42.974;12.082;2024-03-23T05:45:55;97768.37;;;11.03;84.65
62038;BME280;47991;42.974;12.082;2024-03-23T05:48:23;97764.95;;;11.40;82.47
62038;BME280;47991;42.974;12.082;2024-03-23T05:50:50;97767.19;;;11.42;81.94
62038;BME280;47991;42.974;12.082;2024-03-23T05:53:18;97761.53;;;11.74;80.67
62038;BME280;47991;42.974;12.082;2024-03-23T05:55:49;97763.59;;;12.03;80.56
62038;BME280;47991;42.974;12.082;2024-03-23T05:58:17;97760.71;;;12.35;80.14
62038;BME280;47991;42.974;12.082;2024-03-23T06:00:45;97760.66;;;12.71;79.08
62038;BME280;47991;42.974;12.082;2024-03-23T06:03:12;97760.23;;;12.83;80.65
62038;BME280;47991;42.974;12.082;2024-03-23T06:05:39;97759.19;;;13.10;80.11
62038;BME280;47991;42.974;12.082;2024-03-23T06:08:06;97761.48;;;13.34;79.81
62038;BME280;47991;42.974;12.082;2024-03-23T06:10:36;97759.73;;;13.51;79.11
62038;BME280;47991;42.974;12.082;2024-03-23T06:13:03;97755.16;;;13.97;77.16
62038;BME280;47991;42.974;12.082;2024-03-23T06:15:31;97754.81;;;14.51;76.13
62038;BME280;47991;42.974;12.082;2024-03-23T06:17:58;97757.56;;;14.78;74.57
62038;BME280;47991;42.974;12.082;2024-03-23T06:20:25;97752.05;;;14.37;70.89
62038;BME280;47991;42.974;12.082;2024-03-23T06:22:53;97756.20;;;14.28;73.13
62038;BME280;47991;42.974;12.082;2024-03-23T06:25:21;97756.41;;;14.91;74.07
62038;BME280;47991;42.974;12.082;2024-03-23T06:27:48;97756.45;;;15.13;73.61
62038;BME280;47991;42.974;12.082;2024-03-23T06:30:15;97758.58;;;14.83;74.73
62038;BME280;47991;42.974;12.082;2024-03-23T06:32:42;97753.70;;;14.36;73.13
62038;BME280;47991;42.974;12.082;2024-03-23T06:35:09;97753.64;;;14.12;77.17
62038;BME280;47991;42.974;12.082;2024-03-23T06:37:36;97755.36;;;13.97;77.02
62038;BME280;47991;42.974;12.082;2024-03-23T06:40:04;97753.34;;;13.86;76.90
62038;BME280;47991;42.974;12.082;2024-03-23T06:42:34;97755.43;;;13.65;77.18
62038;BME280;47991;42.974;12.082;2024-03-23T06:45:00;97756.65;;;13.35;77.21
62038;BME280;47991;42.974;12.082;2024-03-23T06:47:28;97760.88;;;13.17;75.76
62038;BME280;47991;42.974;12.082;2024-03-23T06:49:55;97760.86;;;12.94;76.09
62038;BME280;47991;42.974;12.082;2024-03-23T06:52:27;97761.85;;;12.43;76.07
62038;BME280;47991;42.974;12.082;2024-03-23T06:54:54;97761.95;;;12.04;77.82
62038;BME280;47991;42.974;12.082;2024-03-23T06:57:21;97764.11;;;11.82;78.82
62038;BME280;47991;42.974;12.082;2024-03-23T06:59:48;97758.39;;;11.78;79.63
62038;BME280;47991;42.974;12.082;2024-03-23T07:02:16;97757.11;;;11.90;78.95
62038;BME280;47991;42.974;12.082;2024-03-23T07:04:43;97757.35;;;11.88;79.03
62038;BME280;47991;42.974;12.082;2024-03-23T07:07:11;97753.81;;;11.77;80.03
62038;BME280;47991;42.974;12.082;2024-03-23T07:09:38;97750.59;;;11.84;80.70
62038;BME280;47991;42.974;12.082;2024-03-23T07:12:05;97754.39;;;11.98;80.25
62038;BME280;47991;42.974;12.082;2024-03-23T07:14:32;97752.82;;;12.18;80.02
62038;BME280;47991;42.974;12.082;2024-03-23T07:16:59;97751.89;;;12.19;81.12
62038;BME280;47991;42.974;12.082;2024-03-23T07:19:26;97751.48;;;11.94;80.26
62038;BME280;47991;42.974;12.082;2024-03-23T07:21:55;97750.54;;;11.58;82.35
62038;BME280;47991;42.974;12.082;2024-03-23T07:24:22;97754.60;;;11.64;83.41
62038;BME280;47991;42.974;12.082;2024-03-23T07:26:49;97747.54;;;11.63;83.77
62038;BME280;47991;42.974;12.082;2024-03-23T07:29:18;97742.65;;;11.88;83.62
62038;BME280;47991;42.974;12.082;2024-03-23T07:31:45;97742.55;;;11.91;81.93
62038;BME280;47991;42.974;12.082;2024-03-23T07:34:12;97743.66;;;11.78;83.87
62038;BME280;47991;42.974;12.082;2024-03-23T07:36:40;97738.87;;;11.85;84.87
62038;BME280;47991;42.974;12.082;2024-03-23T07:39:07;97740.50;;;12.00;84.50
62038;BME280;47991;42.974;12.082;2024-03-23T07:41:34;97732.64;;;12.27;82.60
62038;BME280;47991;42.974;12.082;2024-03-23T07:44:03;97730.68;;;12.42;82.53
62038;BME280;47991;42.974;12.082;2024-03-23T07:46:29;97734.49;;;12.39;83.41
62038;BME280;47991;42.974;12.082;2024-03-23T07:48:57;97734.13;;;12.25;85.16
62038;BME280;47991;42.974;12.082;2024-03-23T07:51:24;97731.77;;;12.51;83.18
62038;BME280;47991;42.974;12.082;2024-03-23T07:53:51;97730.50;;;12.99;82.94
62038;BME280;47991;42.974;12.082;2024-03-23T07:56:21;97726.67;;;13.52;80.49
62038;BME280;47991;42.974;12.082;2024-03-23T07:58:50;97726.39;;;13.54;79.79
62038;BME280;47991;42.974;12.082;2024-03-23T08:01:17;97723.66;;;13.90;78.59
62038;BME280;47991;42.974;12.082;2024-03-23T08:03:45;97719.58;;;14.19;77.95
62038;BME280;47991;42.974;12.082;2024-03-23T08:06:17;97724.46;;;13.66;78.87
62038;BME280;47991;42.974;12.082;2024-03-23T08:08:46;97727.64;;;13.37;81.02
62038;BME280;47991;42.974;12.082;2024-03-23T08:11:13;97728.95;;;13.16;82.64
62038;BME280;47991;42.974;12.082;2024-03-23T08:13:42;97724.88;;;13.16;82.78
62038;BME280;47991;42.974;12.082;2024-03-23T08:16:09;97726.15;;;13.15;81.43
62038;BME280;47991;42.974;12.082;2024-03-23T08:18:37;97725.13;;;13.32;84.16
62038;BME280;47991;42.974;12.082;2024-03-23T08:21:05;97717.81;;;13.60;82.36
62038;BME280;47991;42.974;12.082;2024-03-23T08:23:33;97709.60;;;13.86;78.59
62038;BME280;47991;42.974;12.082;2024-03-23T08:26:09;97704.73;;;13.97;77.44
62038;BME280;47991;42.974;12.082;2024-03-23T08:28:37;97700.67;;;13.96;80.66
62038;BME280;47991;42.974;12.082;2024-03-23T08:31:08;97698.80;;;14.02;76.46
62038;BME280;47991;42.974;12.082;2024-03-23T08:33:36;97696.69;;;14.38;74.40
62038;BME280;47991;42.974;12.082;2024-03-23T08:36:08;97694.21;;;14.70;72.29
62038;BME280;47991;42.974;12.082;2024-03-23T08:38:35;97689.38;;;14.86;71.12
62038;BME280;47991;42.974;12.082;2024-03-23T08:41:07;97691.48;;;15.02;70.86
62038;BME280;47991;42.974;12.082;2024-03-23T08:43:39;97695.79;;;15.27;70.45
62038;BME280;47991;42.974;12.082;2024-03-23T08:46:06;97692.80;;;15.48;68.90
62038;BME280;47991;42.974;12.082;2024-03-23T08:48:35;97690.04;;;15.64;67.70
62038;BME280;47991;42.974;12.082;2024-03-23T08:51:03;97689.10;;;15.69;65.82
62038;BME280;47991;42.974;12.082;2024-03-23T08:53:31;97680.71;;;15.77;65.88
62038;BME280;47991;42.974;12.082;2024-03-23T08:55:59;97672.23;;;15.86;65.58
62038;BME280;47991;42.974;12.082;2024-03-23T08:58:30;97674.47;;;15.87;65.74
62038;BME280;47991;42.974;12.082;2024-03-23T09:01:18;97672.40;;;15.86;65.23
62038;BME280;47991;42.974;12.082;2024-03-23T09:03:46;97672.36;;;15.97;63.90
62038;BME280;47991;42.974;12.082;2024-03-23T09:06:14;97659.26;;;15.82;63.51
62038;BME280;47991;42.974;12.082;2024-03-23T09:08:42;97654.75;;;16.07;63.54
62038;BME280;47991;42.974;12.082;2024-03-23T09:11:13;97654.30;;;16.26;61.89
62038;BME280;47991;42.974;12.082;2024-03-23T09:13:40;97643.35;;;16.34;61.05
62038;BME280;47991;42.974;12.082;2024-03-23T09:16:09;97644.61;;;16.30;58.93
62038;BME280;47991;42.974;12.082;2024-03-23T09:18:36;97648.39;;;16.16;59.64
62038;BME280;47991;42.974;12.082;2024-03-23T09:21:11;97646.54;;;16.14;59.81
62038;BME280;47991;42.974;12.082;2024-03-23T09:23:43;97639.14;;;16.02;60.01
62038;BME280;47991;42.974;12.082;2024-03-23T09:26:10;97634.89;;;16.04;59.91
62038;BME280;47991;42.974;12.082;2024-03-23T09:28:37;97634.25;;;16.20;60.13
62038;BME280;47991;42.974;12.082;2024-03-23T09:31:05;97632.11;;;16.47;59.99
62038;BME280;47991;42.974;12.082;2024-03-23T09:33:33;97631.94;;;16.67;59.48
62038;BME280;47991;42.974;12.082;2024-03-23T09:36:04;97623.58;;;16.78;58.53
62038;BME280;47991;42.974;12.082;2024-03-23T09:38:31;97623.14;;;16.87;57.51
62038;BME280;47991;42.974;12.082;2024-03-23T09:40:59;97628.90;;;16.93;57.15
62038;BME280;47991;42.974;12.082;2024-03-23T09:43:26;97625.20;;;17.02;55.52
62038;BME280;47991;42.974;12.082;2024-03-23T09:45:53;97619.40;;;17.03;55.85
62038;BME280;47991;42.974;12.082;2024-03-23T09:48:20;97621.74;;;16.99;54.68
62038;BME280;47991;42.974;12.082;2024-03-23T09:50:47;97616.86;;;16.94;54.10
62038;BME280;47991;42.974;12.082;2024-03-23T09:53:15;97610.36;;;16.82;53.97
62038;BME280;47991;42.974;12.082;2024-03-23T09:55:44;97609.44;;;16.83;54.56
62038;BME280;47991;42.974;12.082;2024-03-23T09:58:17;97602.38;;;17.04;54.31
62038;BME280;47991;42.974;12.082;2024-03-23T10:00:45;97602.11;;;17.12;54.25
62038;BME280;47991;42.974;12.082;2024-03-23T10:03:12;97594.85;;;17.11;53.90
62038;BME280;47991;42.974;12.082;2024-03-23T10:05:40;97594.73;;;16.97;54.30
62038;BME280;47991;42.974;12.082;2024-03-23T10:10:44;97583.98;;;17.01;55.35
62038;BME280;47991;42.974;12.082;2024-03-23T10:13:24;97574.08;;;17.27;54.96
62038;BME280;47991;42.974;12.082;2024-03-23T10:15:56;97571.71;;;17.64;54.90
62038;BME280;47991;42.974;12.082;2024-03-23T10:18:25;97566.98;;;17.71;53.13
62038;BME280;47991;42.974;12.082;2024-03-23T10:21:07;97564.14;;;17.74;52.78
62038;BME280;47991;42.974;12.082;2024-03-23T10:23:42;97553.11;;;17.85;53.95
62038;BME280;47991;42.974;12.082;2024-03-23T10:26:21;97562.31;;;18.01;53.66
62038;BME280;47991;42.974;12.082;2024-03-23T10:28:55;97551.23;;;18.36;53.71
62038;BME280;47991;42.974;12.082;2024-03-23T10:31:24;97551.17;;;18.42;53.04
62038;BME280;47991;42.974;12.082;2024-03-23T10:33:52;97539.12;;;18.46;52.11
62038;BME280;47991;42.974;12.082;2024-03-23T10:36:23;97548.94;;;18.09;52.29
62038;BME280;47991;42.974;12.082;2024-03-23T10:38:51;97542.35;;;18.00;53.12
62038;BME280;47991;42.974;12.082;2024-03-23T10:41:19;97537.20;;;17.82;53.52
62038;BME280;47991;42.974;12.082;2024-03-23T10:43:47;97524.96;;;17.95;53.62
62038;BME280;47991;42.974;12.082;2024-03-23T10:46:15;97526.42;;;17.92;53.91
62038;BME280;47991;42.974;12.082;2024-03-23T10:48:42;97530.45;;;17.93;53.68
62038;BME280;47991;42.974;12.082;2024-03-23T10:51:11;97521.95;;;18.01;53.86
62038;BME280;47991;42.974;12.082;2024-03-23T10:53:39;97521.27;;;18.00;54.63
62038;BME280;47991;42.974;12.082;2024-03-23T10:56:07;97524.47;;;18.00;54.04
62038;BME280;47991;42.974;12.082;2024-03-23T10:58:40;97537.77;;;17.70;53.91
62038;BME280;47991;42.974;12.082;2024-03-23T11:01:11;97524.67;;;17.55;54.34
62038;BME280;47991;42.974;12.082;2024-03-23T11:03:39;97528.77;;;17.22;55.56
62038;BME280;47991;42.974;12.082;2024-03-23T11:06:34;97524.12;;;16.98;56.62
62038;BME280;47991;42.974;12.082;2024-03-23T11:09:02;97520.58;;;17.01;57.33
62038;BME280;47991;42.974;12.082;2024-03-23T11:11:29;97524.42;;;16.96;57.39
62038;BME280;47991;42.974;12.082;2024-03-23T11:13:59;97515.52;;;16.93;57.96
62038;BME280;47991;42.974;12.082;2024-03-23T11:16:27;97515.17;;;17.35;58.28
62038;BME280;47991;42.974;12.082;2024-03-23T11:21:55;97506.23;;;17.47;56.48
62038;BME280;47991;42.974;12.082;2024-03-23T11:24:22;97499.01;;;17.60;56.51
62038;BME280;47991;42.974;12.082;2024-03-23T11:26:49;97492.93;;;17.78;56.45
62038;BME280;47991;42.974;12.082;2024-03-23T11:29:17;97478.95;;;18.07;55.53
62038;BME280;47991;42.974;12.082;2024-03-23T11:31:49;97478.23;;;18.35;55.69
62038;BME280;47991;42.974;12.082;2024-03-23T11:34:16;97474.90;;;18.43;55.86
62038;BME280;47991;42.974;12.082;2024-03-23T11:36:45;97474.26;;;18.55;55.96
62038;BME280;47991;42.974;12.082;2024-03-23T11:39:19;97469.67;;;18.76;55.38
62038;BME280;47991;42.974;12.082;2024-03-23T11:41:52;97468.18;;;18.96;55.10
62038;BME280;47991;42.974;12.082;2024-03-23T11:44:26;97466.63;;;18.85;54.28
62038;BME280;47991;42.974;12.082;2024-03-23T11:46:53;97463.77;;;18.76;53.73
62038;BME280;47991;42.974;12.082;2024-03-23T11:49:28;97464.15;;;18.54;53.96
62038;BME280;47991;42.974;12.082;2024-03-23T11:51:56;97451.35;;;18.25;55.04
62038;BME280;47991;42.974;12.082;2024-03-23T11:54:24;97451.05;;;18.13;55.56
62038;BME280;47991;42.974;12.082;2024-03-23T11:59:41;97450.13;;;17.93;55.03
62038;BME280;47991;42.974;12.082;2024-03-23T12:02:12;97448.11;;;18.09;54.33
62038;BME280;47991;42.974;12.082;2024-03-23T12:04:42;97435.34;;;18.26;52.91
62038;BME280;47991;42.974;12.082;2024-03-23T12:07:19;97427.30;;;18.34;51.67
62038;BME280;47991;42.974;12.082;2024-03-23T12:10:05;97421.27;;;18.31;51.32
62038;BME280;47991;42.974;12.082;2024-03-23T12:12:35;97425.13;;;18.27;51.88
62038;BME280;47991;42.974;12.082;2024-03-23T12:15:07;97432.52;;;18.34;51.56
62038;BME280;47991;42.974;12.082;2024-03-23T12:17:35;97438.11;;;18.60;50.63
62038;BME280;47991;42.974;12.082;2024-03-23T12:20:03;97439.06;;;18.71;49.68
62038;BME280;47991;42.974;12.082;2024-03-23T12:22:30;97442.16;;;18.78;49.54
62038;BME280;47991;42.974;12.082;2024-03-23T12:24:57;97444.98;;;18.87;49.13
62038;BME280;47991;42.974;12.082;2024-03-23T12:27:24;97442.08;;;18.93;48.25
62038;BME280;47991;42.974;12.082;2024-03-23T12:29:51;97433.23;;;19.04;47.78
62038;BME280;47991;42.974;12.082;2024-03-23T12:32:18;97437.46;;;18.98;47.91
62038;BME280;47991;42.974;12.082;2024-03-23T12:34:45;97425.77;;;18.82;48.27
62038;BME280;47991;42.974;12.082;2024-03-23T12:37:14;97417.04;;;18.71;48.37
62038;BME280;47991;42.974;12.082;2024-03-23T12:39:41;97419.31;;;18.66;49.02
62038;BME280;47991;42.974;12.082;2024-03-23T12:42:07;97426.60;;;18.61;49.28
62038;BME280;47991;42.974;12.082;2024-03-23T12:44:34;97416.89;;;18.73;49.80
62038;BME280;47991;42.974;12.082;2024-03-23T12:47:01;97410.07;;;18.81;49.55
62038;BME280;47991;42.974;12.082;2024-03-23T12:49:28;97411.52;;;18.67;49.42
62038;BME280;47991;42.974;12.082;2024-03-23T12:51:56;97409.65;;;18.55;49.83
62038;BME280;47991;42.974;12.082;2024-03-23T12:54:23;97412.81;;;18.45;49.82
62038;BME280;47991;42.974;12.082;2024-03-23T12:56:50;97414.92;;;18.40;50.29
62038;BME280;47991;42.974;12.082;2024-03-23T12:59:17;97417.63;;;18.32;50.37
62038;BME280;47991;42.974;12.082;2024-03-23T13:01:45;97417.04;;;18.40;50.54
62038;BME280;47991;42.974;12.082;2024-03-23T13:04:12;97417.04;;;18.68;50.03
62038;BME280;47991;42.974;12.082;2024-03-23T13:06:39;97417.28;;;18.62;50.00
62038;BME280;47991;42.974;12.082;2024-03-23T13:09:06;97420.52;;;18.59;49.73
62038;BME280;47991;42.974;12.082;2024-03-23T13:11:33;97421.98;;;18.42;50.69
62038;BME280;47991;42.974;12.082;2024-03-23T13:14:00;97425.40;;;18.44;50.74
62038;BME280;47991;42.974;12.082;2024-03-23T13:16:27;97425.73;;;18.34;50.78
62038;BME280;47991;42.974;12.082;2024-03-23T13:18:54;97424.64;;;18.53;50.79
62038;BME280;47991;42.974;12.082;2024-03-23T13:21:21;97418.48;;;18.71;51.28
62038;BME280;47991;42.974;12.082;2024-03-23T13:23:48;97421.84;;;19.01;50.86
62038;BME280;47991;42.974;12.082;2024-03-23T13:26:16;97420.55;;;19.28;50.07
62038;BME280;47991;42.974;12.082;2024-03-23T13:28:43;97413.95;;;19.27;49.58
62038;BME280;47991;42.974;12.082;2024-03-23T13:31:11;97420.81;;;19.29;49.37
62038;BME280;47991;42.974;12.082;2024-03-23T13:33:38;97422.93;;;19.06;49.50
62038;BME280;47991;42.974;12.082;2024-03-23T13:36:05;97415.88;;;18.67;49.43
62038;BME280;47991;42.974;12.082;2024-03-23T13:38:32;97412.77;;;18.35;49.85
62038;BME280;47991;42.974;12.082;2024-03-23T13:41:00;97405.73;;;18.33;50.17
62038;BME280;47991;42.974;12.082;2024-03-23T13:43:27;97408.50;;;18.32;50.53
62038;BME280;47991;42.974;12.082;2024-03-23T13:45:58;97403.95;;;18.39;50.10
62038;BME280;47991;42.974;12.082;2024-03-23T13:48:28;97403.44;;;18.43;49.58
62038;BME280;47991;42.974;12.082;2024-03-23T13:51:04;97412.82;;;18.37;50.39
62038;BME280;47991;42.974;12.082;2024-03-23T13:53:31;97415.08;;;18.10;51.19
62038;BME280;47991;42.974;12.082;2024-03-23T13:55:59;97411.66;;;18.22;51.16
62038;BME280;47991;42.974;12.082;2024-03-23T13:58:26;97422.30;;;18.17;51.03
62038;BME280;47991;42.974;12.082;2024-03-23T14:00:55;97412.10;;;18.20;50.83